Twig, MN (55791)

5:38 PM CST on November 22, 2014 (GMT -0600)
KMNDULUT16 | Change Station
CLOSE
Current Station
Personal Weather Station
Location: Canosia twp, Duluth, MN
Elevation: 1438 ft
Nearby Weather Stations

Elev 1438 ft 46.86 °N, 92.27 °W | Updated 2 seconds ago

Overcast
Overcast
32.9 °F
Feels Like 27 °F
N
6.0
Wind Variable Wind from East
Gusts 6.0 mph

Today
High -- | Low -- °F
--% Chance of Precip.
Yesterday
High -- | Low -- °F
Precip. -- in
7:22 AM 4:28 PM
New Moon, 0% visible
Pressure 29.61 in
Visibility 3.0 miles
Clouds Overcast 900 ft
Windchill 27 °F
Dew Point 32 °F
Humidity 96%
Rainfall 0.00 in
Snow Depth Not available.
UV 0 out of 12
Pollen .10 out of 12
Air Quality Not available.
Flu Activity Not available.
SPECI KDLH 222305Z 17008KT 3SM BR OVC009 02/M01 A2961 RMK AO2 SFC VIS 4 T00171006

More Conditions Fewer Conditions

Pressure 29.61 in
Visibility 3.0 miles
Clouds Overcast 900 ft
Windchill 27 °F
Dew Point 32 °F
Humidity 96%
Rainfall 0.00 in
Snow Depth Not available.
UV 0 out of 12
Pollen .10 out of 12
Air Quality Not available.
Flu Activity Not available.
SPECI KDLH 222305Z 17008KT 3SM BR OVC009 02/M01 A2961 RMK AO2 SFC VIS 4 T00171006

More Conditions Fewer Conditions

10-Day Weather Forecast

Almanac

Astronomy

Nov. 22, 2014 Rise Set
Actual Time
Civil Twilight
Nautical Twilight
Astronomical Twilight
Moon
Length of Visible Light
Length of Day
Tomorrow will be .
, % of the Moon is Illuminated

Today's Extremes

State Highs State Lows

Community

WunderPhotos

Upload Photos

1,772,919 photos uploaded!

WunderBlogs® & News

Nearby

Air Quality

  Air Quality AQ Index Pollutant
Not available.

Snow Depth

Station Depth Elevation

Earthquake Activity

City Distance Mag. Time & Date
Minimum magnitude displayed is 2.5.

Coastal Water Temperatures

Place Temperature

Nearby Weather Stations